Time;durP1;ratioP1;P1;durP2;ratioP2;P2;SDS_P1;SDS_P2;PMS_P1;PMS_P2;Temp;Humidity;BMP_temperature;BMP_pressure;BME280_temperature;BME280_humidity;BME280_pressure;Samples;Min_cycle;Max_cycle;Signal;HPM_P1;HPM_P2
2024/04/27 00:01:55;;;;;;;20.57;13.50;;;12.00;91.60;;;;;;5524192;25;20474;-56
2024/04/27 00:04:24;;;;;;;14.47;12.37;;;12.00;91.50;;;;;;5525032;25;20588;-56
2024/04/27 00:06:53;;;;;;;13.70;12.27;;;12.00;91.60;;;;;;5524320;25;20554;-55
2024/04/27 00:09:21;;;;;;;15.53;12.40;;;11.90;91.50;;;;;;5524935;25;20862;-56
2024/04/27 00:11:52;;;;;;;13.70;12.40;;;11.90;91.50;;;;;;5524938;25;20575;-55
2024/04/27 00:14:21;;;;;;;15.87;13.03;;;11.90;91.50;;;;;;5524824;25;20498;-55
2024/04/27 00:16:49;;;;;;;15.10;13.50;;;11.90;91.50;;;;;;5523907;25;20502;-56
2024/04/27 00:19:17;;;;;;;14.47;12.97;;;11.80;91.50;;;;;;5524928;25;20470;-55
2024/04/27 00:21:46;;;;;;;15.73;13.43;;;11.80;91.60;;;;;;5523957;25;20999;-55
2024/04/27 00:24:14;;;;;;;15.40;13.20;;;11.80;91.70;;;;;;5524479;25;20815;-55
2024/04/27 00:26:43;;;;;;;16.80;13.10;;;11.70;91.60;;;;;;5524726;25;20467;-55
2024/04/27 00:29:15;;;;;;;16.03;13.60;;;11.70;91.70;;;;;;5524192;25;20459;-56
2024/04/27 00:31:44;;;;;;;16.37;11.97;;;11.70;91.70;;;;;;5524989;25;21077;-56
2024/04/27 00:34:12;;;;;;;14.90;13.10;;;11.70;91.80;;;;;;5524611;25;20580;-56
2024/04/27 00:36:41;;;;;;;17.00;13.57;;;11.60;91.80;;;;;;5524796;25;20551;-56
2024/04/27 00:39:10;;;;;;;14.60;13.07;;;11.60;92.20;;;;;;5524919;25;20446;-55
2024/04/27 00:41:38;;;;;;;14.80;13.30;;;11.60;92.00;;;;;;5524052;25;20478;-56
2024/04/27 00:44:07;;;;;;;14.13;12.63;;;11.60;92.00;;;;;;5524388;25;20494;-56
2024/04/27 00:46:38;;;;;;;14.70;12.90;;;11.50;92.10;;;;;;5524025;25;20502;-55
2024/04/27 00:49:07;;;;;;;18.00;13.90;;;11.50;92.20;;;;;;5524179;25;20446;-56
2024/04/27 00:51:36;;;;;;;16.73;13.27;;;11.50;92.10;;;;;;5524654;25;20481;-57
2024/04/27 00:54:06;;;;;;;15.60;13.90;;;11.50;92.10;;;;;;5524851;25;20481;-56
2024/04/27 00:56:35;;;;;;;14.00;12.57;;;11.50;92.10;;;;;;5525038;25;20461;-56
2024/04/27 00:59:03;;;;;;;16.10;13.60;;;11.50;92.10;;;;;;5524784;25;20454;-56
2024/04/27 01:01:32;;;;;;;17.50;13.57;;;11.40;92.00;;;;;;5523963;25;20514;-56
2024/04/27 01:04:03;;;;;;;17.33;14.23;;;11.40;92.00;;;;;;5523940;25;20500;-56
2024/04/27 01:06:31;;;;;;;13.20;11.33;;;11.30;91.90;;;;;;5527898;25;20442;-57
2024/04/27 01:09:00;;;;;;;16.07;13.27;;;11.30;91.90;;;;;;5527972;25;20506;-57
2024/04/27 01:11:29;;;;;;;17.13;12.90;;;11.20;91.90;;;;;;5526574;25;20506;-56
2024/04/27 01:13:57;;;;;;;14.50;13.00;;;11.20;91.90;;;;;;5526179;25;20877;-56
2024/04/27 01:16:27;;;;;;;16.00;14.27;;;11.20;91.90;;;;;;5527494;25;20449;-55
2024/04/27 01:18:56;;;;;;;15.20;12.00;;;11.10;91.90;;;;;;5527893;25;21034;-56
2024/04/27 01:21:27;;;;;;;15.57;12.80;;;11.10;91.90;;;;;;5527775;25;20552;-56
2024/04/27 01:23:58;;;;;;;15.43;13.30;;;11.10;92.00;;;;;;5527845;25;20505;-56
2024/04/27 01:26:27;;;;;;;15.73;13.43;;;11.10;92.00;;;;;;5527773;25;20813;-56
2024/04/27 01:28:55;;;;;;;17.47;13.90;;;11.00;92.00;;;;;;5528156;25;20442;-56
2024/04/27 01:31:23;;;;;;;15.60;13.40;;;11.00;92.00;;;;;;5526812;25;20454;-57
2024/04/27 01:33:52;;;;;;;15.10;13.50;;;11.00;92.10;;;;;;5527532;25;20442;-56
2024/04/27 01:36:20;;;;;;;14.87;12.73;;;10.90;92.10;;;;;;5527546;25;20572;-57
2024/04/27 01:38:49;;;;;;;16.10;14.20;;;10.90;92.30;;;;;;5528201;25;20486;-56
2024/04/27 01:41:20;;;;;;;15.93;13.73;;;10.90;92.50;;;;;;5527422;25;20555;-56
2024/04/27 01:43:48;;;;;;;17.17;12.77;;;10.90;92.70;;;;;;5527694;25;20454;-56
2024/04/27 01:46:17;;;;;;;15.83;13.80;;;10.90;92.90;;;;;;5527356;25;20454;-56
2024/04/27 01:48:45;;;;;;;17.10;13.80;;;11.00;93.10;;;;;;5527514;25;20450;-56
2024/04/27 01:51:14;;;;;;;15.83;13.43;;;11.00;93.30;;;;;;5526897;25;20454;-56
2024/04/27 01:53:42;;;;;;;14.63;11.93;;;11.00;93.40;;;;;;5526375;25;20560;-56
2024/04/27 01:56:11;;;;;;;17.60;12.37;;;11.00;93.50;;;;;;5527075;25;20995;-57
2024/04/27 01:58:42;;;;;;;18.00;13.27;;;11.00;93.60;;;;;;5527481;25;20450;-56
2024/04/27 02:01:10;;;;;;;17.83;12.23;;;11.00;93.60;;;;;;5526663;25;20457;-56
2024/04/27 02:03:39;;;;;;;16.50;13.40;;;11.00;93.50;;;;;;5527358;25;20438;-57
2024/04/27 02:06:08;;;;;;;16.70;12.97;;;11.00;93.40;;;;;;5527044;25;20454;-58
2024/04/27 02:08:36;;;;;;;18.73;14.50;;;10.90;93.40;;;;;;5527041;25;20474;-56
2024/04/27 02:11:06;;;;;;;19.37;13.30;;;10.90;93.40;;;;;;5526957;25;21040;-56
2024/04/27 02:13:35;;;;;;;19.10;12.57;;;10.90;93.20;;;;;;5527146;25;20486;-56
2024/04/27 02:21:35;;;;;;;17.40;13.27;;;10.80;93.40;;;;;;5529348;26;20498;-57
2024/04/27 02:24:03;;;;;;;13.73;12.33;;;10.70;92.90;;;;;;5526326;25;20454;-56
2024/04/27 02:26:32;;;;;;;14.67;10.90;;;10.70;92.90;;;;;;5527075;25;20458;-56
2024/04/27 02:29:00;;;;;;;13.77;11.70;;;10.60;92.80;;;;;;5526577;25;20510;-56
2024/04/27 02:31:31;;;;;;;14.57;12.33;;;10.60;92.90;;;;;;5526432;25;20521;-56
2024/04/27 02:34:00;;;;;;;15.63;11.80;;;10.60;92.90;;;;;;5525879;25;20830;-56
2024/04/27 02:36:28;;;;;;;13.60;10.97;;;10.50;92.90;;;;;;5526429;25;20571;-56
2024/04/27 02:38:57;;;;;;;12.37;11.00;;;10.50;92.90;;;;;;5526344;25;20470;-56
2024/04/27 02:41:25;;;;;;;11.73;10.47;;;10.50;93.00;;;;;;5526363;25;20511;-56
2024/04/27 02:43:54;;;;;;;15.20;11.20;;;10.40;92.90;;;;;;5526580;25;20486;-57
2024/04/27 02:46:22;;;;;;;13.77;11.23;;;10.40;92.90;;;;;;5525531;25;20976;-56
2024/04/27 02:48:53;;;;;;;13.17;11.40;;;10.40;93.00;;;;;;5526056;25;20919;-57
2024/04/27 02:51:23;;;;;;;12.33;10.97;;;10.30;93.00;;;;;;5526993;25;20454;-56
2024/04/27 02:53:52;;;;;;;13.30;11.80;;;10.30;93.00;;;;;;5526751;25;20510;-56
2024/04/27 02:56:20;;;;;;;13.80;11.80;;;10.30;93.10;;;;;;5526731;25;20567;-57
2024/04/27 02:58:49;;;;;;;13.00;10.40;;;10.30;93.20;;;;;;5526642;25;20550;-56
2024/04/27 03:01:17;;;;;;;17.00;11.43;;;10.20;93.20;;;;;;5526172;25;20557;-56
2024/04/27 03:03:47;;;;;;;13.00;10.93;;;10.30;93.30;;;;;;5526333;26;20485;-57
2024/04/27 03:06:19;;;;;;;11.83;10.57;;;10.30;93.40;;;;;;5525915;25;20960;-57
2024/04/27 03:08:48;;;;;;;12.33;10.50;;;10.30;93.50;;;;;;5526693;25;20525;-57
2024/04/27 03:11:17;;;;;;;12.20;11.00;;;10.30;93.60;;;;;;5525711;25;20498;-56
2024/04/27 03:13:45;;;;;;;12.43;11.23;;;10.30;93.80;;;;;;5526455;25;20442;-57
2024/04/27 03:16:18;;;;;;;13.80;10.00;;;10.30;94.00;;;;;;5526013;25;20588;-57
2024/04/27 03:18:47;;;;;;;12.63;10.50;;;10.30;94.20;;;;;;5525782;25;20538;-56
2024/04/27 03:21:19;;;;;;;13.00;10.47;;;10.30;94.30;;;;;;5526064;25;20852;-57
2024/04/27 03:23:47;;;;;;;17.00;11.40;;;10.30;94.40;;;;;;5525987;25;20447;-57
2024/04/27 03:26:16;;;;;;;11.27;9.43;;;10.40;94.60;;;;;;5525589;25;20446;-57
2024/04/27 03:28:44;;;;;;;12.70;10.07;;;10.40;94.70;;;;;;5525722;25;20445;-57
2024/04/27 03:31:14;;;;;;;11.13;9.93;;;10.40;94.70;;;;;;5525766;25;20510;-56
2024/04/27 03:33:45;;;;;;;11.73;10.63;;;10.30;94.60;;;;;;5526103;25;20450;-57
2024/04/27 03:36:23;;;;;;;13.07;10.27;;;10.40;94.90;;;;;;5525456;25;20517;-57
2024/04/27 03:38:52;;;;;;;12.37;10.47;;;10.40;95.30;;;;;;5525210;25;20446;-57
2024/04/27 03:41:20;;;;;;;11.67;10.47;;;10.40;95.00;;;;;;5525081;25;20554;-57
2024/04/27 03:43:49;;;;;;;11.50;10.00;;;10.40;95.10;;;;;;5525092;25;20562;-57
2024/04/27 03:46:22;;;;;;;12.20;9.67;;;10.40;95.10;;;;;;5525748;25;20502;-57
2024/04/27 03:48:50;;;;;;;10.80;9.40;;;10.40;95.20;;;;;;5524975;25;20842;-57
2024/04/27 03:51:21;;;;;;;12.10;8.90;;;10.40;95.30;;;;;;5525451;25;20871;-57
2024/04/27 03:53:50;;;;;;;15.27;9.93;;;10.40;95.50;;;;;;5525679;25;20466;-57
2024/04/27 03:56:18;;;;;;;10.93;9.47;;;10.40;95.60;;;;;;5525889;25;20458;-57
2024/04/27 03:58:47;;;;;;;9.87;8.70;;;10.40;95.70;;;;;;5526072;25;20498;-57
2024/04/27 04:01:16;;;;;;;10.40;8.77;;;10.40;95.90;;;;;;5525654;25;20462;-57
2024/04/27 04:03:45;;;;;;;9.67;8.70;;;10.40;96.10;;;;;;5524589;25;20458;-57
2024/04/27 04:06:13;;;;;;;9.50;8.67;;;10.40;96.20;;;;;;5525336;25;20878;-57
2024/04/27 04:08:44;;;;;;;9.20;8.20;;;10.40;96.40;;;;;;5525385;25;20446;-57
2024/04/27 04:11:13;;;;;;;10.60;8.70;;;10.50;96.50;;;;;;5525217;25;20446;-57
2024/04/27 04:13:41;;;;;;;12.60;8.70;;;10.50;96.60;;;;;;5525449;25;20535;-57
2024/04/27 04:16:10;;;;;;;10.77;9.00;;;10.50;96.60;;;;;;5525115;25;20502;-56
2024/04/27 04:18:38;;;;;;;9.90;9.00;;;10.50;96.70;;;;;;5525333;25;20450;-56
2024/04/27 04:21:07;;;;;;;9.17;8.27;;;10.50;96.70;;;;;;5524707;25;20491;-56
2024/04/27 04:23:36;;;;;;;10.87;9.40;;;10.50;96.80;;;;;;5525136;25;20458;-56
2024/04/27 04:26:07;;;;;;;10.20;9.10;;;10.60;96.90;;;;;;5524979;25;20525;-56
2024/04/27 04:28:36;;;;;;;10.63;8.90;;;10.60;96.90;;;;;;5525085;25;20581;-56
2024/04/27 04:31:04;;;;;;;9.53;8.30;;;10.60;97.10;;;;;;5524369;25;20438;-56
2024/04/27 04:33:33;;;;;;;11.17;8.40;;;10.60;97.10;;;;;;5525094;25;20465;-56
2024/04/27 04:36:01;;;;;;;10.60;8.50;;;10.60;97.10;;;;;;5525014;25;20551;-56
2024/04/27 04:38:30;;;;;;;8.73;7.83;;;10.60;97.10;;;;;;5525025;25;20458;-56
2024/04/27 04:41:00;;;;;;;8.40;7.50;;;10.60;97.20;;;;;;5523007;25;20550;-56
2024/04/27 04:43:31;;;;;;;7.87;7.17;;;10.70;97.40;;;;;;5524686;25;20837;-56
2024/04/27 04:46:00;;;;;;;9.43;7.80;;;10.70;97.40;;;;;;5524796;25;20502;-56
2024/04/27 04:48:29;;;;;;;7.73;6.97;;;10.70;97.40;;;;;;5527368;25;20863;-56
2024/04/27 04:51:01;;;;;;;9.23;7.77;;;10.70;97.50;;;;;;5527760;25;20494;-56
2024/04/27 04:53:30;;;;;;;7.53;6.83;;;10.80;97.60;;;;;;5528530;25;20563;-56
2024/04/27 04:55:59;;;;;;;7.73;7.03;;;10.80;97.70;;;;;;5528524;25;20455;-57
2024/04/27 04:58:28;;;;;;;11.33;7.03;;;10.90;97.70;;;;;;5527982;25;20438;-56
2024/04/27 05:01:00;;;;;;;8.03;7.20;;;10.90;97.70;;;;;;5527402;25;20446;-57
2024/04/27 05:03:29;;;;;;;13.10;7.07;;;10.90;97.70;;;;;;5527654;25;20521;-56
2024/04/27 05:05:57;;;;;;;10.43;7.83;;;11.00;97.60;;;;;;5527269;25;20521;-57
2024/04/27 05:08:25;;;;;;;7.87;7.17;;;11.00;97.60;;;;;;5527890;25;20807;-56
2024/04/27 05:10:54;;;;;;;7.53;6.73;;;11.00;97.60;;;;;;5527734;25;20458;-56
2024/04/27 05:13:22;;;;;;;7.10;6.50;;;11.00;97.60;;;;;;5527338;25;20473;-56
2024/04/27 05:15:51;;;;;;;6.10;5.33;;;11.10;97.70;;;;;;5527487;25;20450;-56
2024/04/27 05:18:22;;;;;;;8.77;6.33;;;11.10;97.60;;;;;;5528300;25;20498;-56
2024/04/27 05:20:51;;;;;;;6.70;6.00;;;11.10;97.50;;;;;;5528203;25;20543;-56
2024/04/27 05:23:20;;;;;;;5.63;5.13;;;11.20;97.40;;;;;;5527202;25;20991;-56
2024/04/27 05:25:48;;;;;;;5.80;5.20;;;11.20;97.30;;;;;;5527678;25;20438;-56
2024/04/27 05:28:16;;;;;;;6.97;5.40;;;11.20;97.30;;;;;;5526856;25;20458;-56
2024/04/27 05:30:45;;;;;;;5.07;4.57;;;11.30;97.40;;;;;;5527129;25;20458;-56
2024/04/27 05:33:13;;;;;;;5.63;5.00;;;11.30;97.30;;;;;;5526924;25;20462;-56
2024/04/27 05:35:44;;;;;;;5.23;4.83;;;11.40;97.20;;;;;;5526807;25;20575;-56
2024/04/27 05:38:13;;;;;;;5.53;4.90;;;11.40;97.50;;;;;;5527176;25;21022;-56
2024/04/27 05:40:41;;;;;;;5.07;4.57;;;11.40;97.10;;;;;;5527095;25;20450;-56
2024/04/27 05:43:10;;;;;;;5.50;4.93;;;11.50;97.10;;;;;;5527358;25;20507;-56
2024/04/27 05:45:39;;;;;;;8.40;5.20;;;11.60;97.20;;;;;;5527169;25;20989;-56
2024/04/27 05:48:11;;;;;;;6.87;5.73;;;11.70;97.20;;;;;;5527293;25;20498;-56
2024/04/27 05:50:39;;;;;;;8.43;5.77;;;11.70;97.20;;;;;;5526874;25;20497;-57
2024/04/27 05:53:13;;;;;;;7.57;5.60;;;11.80;97.10;;;;;;5526596;25;20458;-56
2024/04/27 05:55:41;;;;;;;6.83;4.67;;;11.90;97.00;;;;;;5526294;25;20446;-56
2024/04/27 05:58:10;;;;;;;6.90;5.00;;;11.90;96.80;;;;;;5526104;25;20880;-56
2024/04/27 06:00:39;;;;;;;5.23;4.53;;;12.00;96.70;;;;;;5525755;25;20446;-56
2024/04/27 06:03:07;;;;;;;6.17;4.50;;;12.00;96.50;;;;;;5526759;25;20560;-56
2024/04/27 06:05:36;;;;;;;6.13;4.73;;;12.10;96.50;;;;;;5527207;25;20490;-57
2024/04/27 06:08:04;;;;;;;7.30;5.00;;;12.20;96.60;;;;;;5527229;25;20507;-57
2024/04/27 06:10:35;;;;;;;7.93;5.13;;;12.30;96.50;;;;;;5526865;25;20892;-56
2024/04/27 06:13:04;;;;;;;5.67;4.90;;;12.40;96.40;;;;;;5526997;25;20568;-56
2024/04/27 06:15:33;;;;;;;8.80;4.50;;;12.50;96.30;;;;;;5526442;25;20988;-56
2024/04/27 06:18:01;;;;;;;5.20;4.27;;;12.60;96.00;;;;;;5526435;25;20580;-56
2024/04/27 06:20:30;;;;;;;5.40;4.90;;;12.70;95.60;;;;;;5526381;25;20454;-56
2024/04/27 06:22:58;;;;;;;7.50;5.40;;;12.80;95.40;;;;;;5526161;25;20525;-56
2024/04/27 06:25:27;;;;;;;8.50;4.50;;;12.90;95.20;;;;;;5526761;25;20439;-57
2024/04/27 06:27:58;;;;;;;5.47;4.10;;;13.00;95.00;;;;;;5526617;25;20450;-57
2024/04/27 06:30:26;;;;;;;5.10;4.40;;;13.00;94.80;;;;;;5526302;25;20442;-56
2024/04/27 06:32:55;;;;;;;4.73;4.30;;;13.00;94.80;;;;;;5526586;25;21008;-56
2024/04/27 06:35:23;;;;;;;4.23;3.80;;;13.10;94.80;;;;;;5526289;25;20925;-56
2024/04/27 06:37:52;;;;;;;4.90;4.50;;;13.10;94.80;;;;;;5526315;25;20454;-56
2024/04/27 06:40:20;;;;;;;6.97;4.17;;;13.10;94.80;;;;;;5525916;25;20450;-56
2024/04/27 06:42:49;;;;;;;10.43;4.20;;;13.10;94.90;;;;;;5526165;25;20466;-56
2024/04/27 06:45:20;;;;;;;6.50;4.70;;;13.10;94.90;;;;;;5525050;25;20890;-56
2024/04/27 06:47:48;;;;;;;3.93;3.47;;;13.10;95.00;;;;;;5525323;25;21100;-56
2024/04/27 06:50:17;;;;;;;5.93;4.77;;;13.20;95.10;;;;;;5525554;25;20979;-57
2024/04/27 06:52:46;;;;;;;5.70;4.10;;;13.20;95.40;;;;;;5526085;25;20462;-56
2024/04/27 06:55:14;;;;;;;4.70;4.30;;;13.30;95.70;;;;;;5525062;25;20454;-57
2024/04/27 06:57:43;;;;;;;4.73;4.33;;;13.30;95.70;;;;;;5526075;25;20901;-57
2024/04/27 07:00:12;;;;;;;4.53;3.67;;;13.30;95.50;;;;;;5526069;25;20458;-57
2024/04/27 07:02:43;;;;;;;5.57;4.43;;;13.40;95.50;;;;;;5526215;25;20470;-57
2024/04/27 07:05:11;;;;;;;5.80;4.60;;;13.50;95.60;;;;;;5525816;25;20446;-57
2024/04/27 07:07:40;;;;;;;4.93;3.93;;;13.60;95.90;;;;;;5525987;25;20573;-57
2024/04/27 07:10:08;;;;;;;4.43;4.03;;;13.70;95.60;;;;;;5525578;25;20960;-57
2024/04/27 07:12:37;;;;;;;4.60;4.20;;;13.90;95.40;;;;;;5524748;25;20506;-57
2024/04/27 07:15:08;;;;;;;5.90;4.70;;;14.10;95.20;;;;;;5525274;25;20479;-56
2024/04/27 07:17:36;;;;;;;6.03;3.63;;;14.30;95.10;;;;;;5525623;25;20458;-56
2024/04/27 07:20:08;;;;;;;4.13;3.37;;;14.50;95.10;;;;;;5525995;25;20450;-56
2024/04/27 07:22:38;;;;;;;5.10;3.60;;;14.70;95.10;;;;;;5525778;25;20469;-56
2024/04/27 07:25:07;;;;;;;3.47;3.27;;;14.80;94.70;;;;;;5524842;25;20983;-56
2024/04/27 07:27:36;;;;;;;4.40;3.70;;;14.80;94.20;;;;;;5525873;25;20450;-57
2024/04/27 07:30:04;;;;;;;4.77;3.10;;;14.90;93.90;;;;;;5525174;25;20450;-57
2024/04/27 07:32:33;;;;;;;4.10;3.77;;;14.90;93.70;;;;;;5524966;25;20454;-56
2024/04/27 07:35:01;;;;;;;4.20;3.80;;;14.90;93.70;;;;;;5525637;25;20826;-56
2024/04/27 07:37:32;;;;;;;3.73;3.43;;;15.00;93.70;;;;;;5525772;25;20555;-56
2024/04/27 07:40:00;;;;;;;3.50;3.23;;;15.00;93.50;;;;;;5525364;25;20446;-56
2024/04/27 07:42:29;;;;;;;4.13;3.70;;;15.10;93.50;;;;;;5525447;25;20510;-57
2024/04/27 07:44:57;;;;;;;7.13;4.30;;;15.20;93.40;;;;;;5524923;25;20454;-57
2024/04/27 07:47:26;;;;;;;4.67;3.97;;;15.20;93.30;;;;;;5525591;25;20505;-56
2024/04/27 07:49:54;;;;;;;4.80;4.20;;;15.30;93.40;;;;;;5525492;25;20894;-57
2024/04/27 07:52:23;;;;;;;3.90;3.60;;;15.30;93.40;;;;;;5525670;25;20478;-57
2024/04/27 07:54:54;;;;;;;3.80;3.50;;;15.30;93.30;;;;;;5525049;25;20442;-57
2024/04/27 07:57:22;;;;;;;6.40;4.37;;;15.30;93.20;;;;;;5524279;25;20449;-57
2024/04/27 07:59:50;;;;;;;3.70;3.37;;;15.20;93.30;;;;;;5524970;25;20991;-56
2024/04/27 08:02:19;;;;;;;3.67;3.37;;;15.20;93.40;;;;;;5523832;25;20574;-55
2024/04/27 08:04:47;;;;;;;3.20;2.90;;;15.10;93.20;;;;;;5525285;25;20618;-55
2024/04/27 08:07:16;;;;;;;3.97;3.63;;;15.00;93.30;;;;;;5524860;25;20547;-55
2024/04/27 08:09:44;;;;;;;3.10;2.80;;;15.00;93.30;;;;;;5525514;25;20466;-55
2024/04/27 08:12:15;;;;;;;7.17;3.00;;;15.00;93.40;;;;;;5525203;25;20563;-56
2024/04/27 08:14:44;;;;;;;2.70;2.43;;;14.90;93.50;;;;;;5525301;25;20563;-56
2024/04/27 08:17:12;;;;;;;3.87;2.93;;;15.00;93.70;;;;;;5524428;25;20804;-56
2024/04/27 08:19:41;;;;;;;3.50;3.10;;;15.00;93.90;;;;;;5524610;25;20442;-55
2024/04/27 08:22:09;;;;;;;3.30;3.00;;;15.10;93.90;;;;;;5524878;25;20568;-56
2024/04/27 08:24:38;;;;;;;3.83;3.13;;;15.20;94.00;;;;;;5528512;25;20446;-56
2024/04/27 08:27:06;;;;;;;3.67;2.77;;;15.30;94.10;;;;;;5527887;25;20597;-55
2024/04/27 08:29:37;;;;;;;3.50;2.97;;;15.40;94.10;;;;;;5527574;25;20551;-55
2024/04/27 08:32:06;;;;;;;3.30;3.00;;;15.40;93.90;;;;;;5527458;25;21007;-57
2024/04/27 08:34:35;;;;;;;2.93;2.73;;;15.40;93.90;;;;;;5527436;25;20485;-56
2024/04/27 08:37:03;;;;;;;3.20;2.90;;;15.30;93.80;;;;;;5527684;25;20470;-56
2024/04/27 08:39:31;;;;;;;2.90;2.70;;;15.20;94.00;;;;;;5527992;25;20449;-56
2024/04/27 08:42:00;;;;;;;2.87;2.57;;;15.30;94.40;;;;;;5526754;25;21006;-56
2024/04/27 08:44:28;;;;;;;3.00;2.70;;;15.40;94.10;;;;;;5526186;25;20575;-55
2024/04/27 08:46:59;;;;;;;2.80;2.60;;;15.50;93.90;;;;;;5527602;25;20502;-55
2024/04/27 08:49:28;;;;;;;3.20;2.90;;;15.60;93.70;;;;;;5527694;25;20465;-55
2024/04/27 08:51:56;;;;;;;4.00;3.10;;;15.80;93.80;;;;;;5526716;25;20847;-55
2024/04/27 08:54:25;;;;;;;4.30;3.20;;;16.10;94.00;;;;;;5528025;25;20854;-55
2024/04/27 08:56:55;;;;;;;3.23;3.03;;;16.40;94.10;;;;;;5527225;25;20454;-55
2024/04/27 08:59:23;;;;;;;3.90;3.47;;;16.70;93.40;;;;;;5527550;25;20854;-55
2024/04/27 09:01:53;;;;;;;3.73;2.23;;;16.90;92.80;;;;;;5527273;25;20477;-55
2024/04/27 09:04:24;;;;;;;2.27;2.13;;;17.10;91.90;;;;;;5527649;25;20558;-55
2024/04/27 09:06:52;;;;;;;2.20;1.97;;;17.30;91.30;;;;;;5526420;25;20458;-55
2024/04/27 09:09:27;;;;;;;3.70;2.40;;;17.50;90.80;;;;;;5527207;25;20446;-56
2024/04/27 09:11:55;;;;;;;2.40;1.63;;;17.60;90.50;;;;;;5527753;25;20473;-56
2024/04/27 09:14:24;;;;;;;2.97;1.90;;;17.80;89.10;;;;;;5526880;25;20490;-56
2024/04/27 09:16:52;;;;;;;1.93;1.83;;;17.80;88.10;;;;;;5527288;25;20450;-56
2024/04/27 09:19:30;;;;;;;2.83;2.63;;;17.70;87.30;;;;;;5527098;25;20506;-56
2024/04/27 09:21:59;;;;;;;2.20;2.00;;;17.80;86.70;;;;;;5526597;25;20518;-56
2024/04/27 09:24:27;;;;;;;2.43;2.23;;;17.70;85.40;;;;;;5526248;25;20550;-56
2024/04/27 09:26:57;;;;;;;2.07;1.97;;;17.80;86.40;;;;;;5526832;25;21093;-56
2024/04/27 09:29:25;;;;;;;2.00;1.90;;;17.90;86.70;;;;;;5527373;25;20946;-56
2024/04/27 09:31:54;;;;;;;5.67;2.03;;;18.00;85.60;;;;;;5526510;25;20904;-56
2024/04/27 09:34:25;;;;;;;1.90;1.80;;;18.10;85.40;;;;;;5525535;25;20453;-56
2024/04/27 09:36:57;;;;;;;2.23;1.77;;;18.10;84.30;;;;;;5527201;25;20534;-57
2024/04/27 09:39:33;;;;;;;2.33;1.80;;;18.10;83.90;;;;;;5526150;25;20458;-56
2024/04/27 09:42:04;;;;;;;2.30;2.10;;;18.20;84.60;;;;;;5525923;25;20505;-56
2024/04/27 09:44:37;;;;;;;2.40;2.20;;;18.30;83.30;;;;;;5526601;25;20442;-56
2024/04/27 09:47:10;;;;;;;2.10;1.90;;;18.30;81.60;;;;;;5526915;25;20498;-55
2024/04/27 09:49:46;;;;;;;1.90;1.70;;;18.10;82.00;;;;;;5527343;25;20442;-55
2024/04/27 09:52:17;;;;;;;1.77;1.67;;;17.90;81.70;;;;;;5525895;25;20477;-56
2024/04/27 09:54:46;;;;;;;2.67;1.87;;;17.80;83.60;;;;;;5527496;25;20509;-56
2024/04/27 09:57:15;;;;;;;1.97;1.80;;;17.80;82.70;;;;;;5526425;25;20490;-56
2024/04/27 09:59:44;;;;;;;2.10;1.70;;;17.70;83.30;;;;;;5526435;25;20571;-57
2024/04/27 10:02:13;;;;;;;3.47;2.00;;;17.80;82.30;;;;;;5526888;25;20751;-57
2024/04/27 10:04:46;;;;;;;1.77;1.67;;;17.90;82.30;;;;;;5526833;25;20498;-56
2024/04/27 10:07:14;;;;;;;2.03;1.93;;;17.90;81.70;;;;;;5526547;25;20506;-57
2024/04/27 10:09:43;;;;;;;2.27;2.07;;;18.10;81.80;;;;;;5526619;25;20450;-56
2024/04/27 10:12:19;;;;;;;1.70;1.60;;;18.10;82.00;;;;;;5526571;25;21022;-56
2024/04/27 10:14:50;;;;;;;2.10;1.90;;;18.10;81.60;;;;;;5526452;25;20992;-56
2024/04/27 10:17:19;;;;;;;2.03;1.93;;;18.10;82.00;;;;;;5526880;25;20552;-56
2024/04/27 10:19:55;;;;;;;1.73;1.63;;;18.10;82.30;;;;;;5526355;25;20774;-56
2024/04/27 10:22:32;;;;;;;2.17;1.97;;;18.10;82.80;;;;;;5526929;25;20535;-56
2024/04/27 10:25:02;;;;;;;1.63;1.53;;;18.00;81.10;;;;;;5526299;25;20502;-55
2024/04/27 10:27:31;;;;;;;2.50;2.03;;;17.90;81.00;;;;;;5526199;25;20493;-55
2024/04/27 10:30:00;;;;;;;1.80;1.70;;;17.80;82.20;;;;;;5529377;25;20465;-56
2024/04/27 10:32:31;;;;;;;3.67;1.83;;;17.90;83.10;;;;;;5529442;25;20466;-56
2024/04/27 10:35:02;;;;;;;2.30;2.10;;;17.90;81.90;;;;;;5529351;25;20442;-55
2024/04/27 10:37:31;;;;;;;1.73;1.63;;;18.00;81.20;;;;;;5526734;25;20450;-55
2024/04/27 10:40:00;;;;;;;1.97;1.87;;;18.00;80.90;;;;;;5525521;25;20995;-55
2024/04/27 10:42:28;;;;;;;1.90;1.77;;;18.00;80.80;;;;;;5527133;25;20474;-55
2024/04/27 10:45:05;;;;;;;8.47;2.17;;;18.00;81.60;;;;;;5525915;25;20438;-55
2024/04/27 10:47:35;;;;;;;2.50;2.27;;;18.10;82.90;;;;;;5525543;25;20446;-55
2024/04/27 10:50:07;;;;;;;2.53;2.23;;;18.50;83.00;;;;;;5525869;25;20492;-55
2024/04/27 10:52:35;;;;;;;3.00;2.73;;;19.00;81.40;;;;;;5525861;25;20575;-56
2024/04/27 10:55:04;;;;;;;5.57;2.73;;;19.70;79.80;;;;;;5526590;25;20454;-55
2024/04/27 10:57:33;;;;;;;2.77;2.57;;;20.30;77.40;;;;;;5525753;25;20923;-55
2024/04/27 11:00:02;;;;;;;3.73;2.77;;;20.70;75.50;;;;;;5525158;25;20438;-55
2024/04/27 11:02:31;;;;;;;2.30;2.20;;;20.90;73.40;;;;;;5525319;25;20513;-55
2024/04/27 11:05:01;;;;;;;2.87;2.63;;;20.90;72.40;;;;;;5526082;25;20449;-55
2024/04/27 11:07:35;;;;;;;2.60;2.40;;;21.00;73.40;;;;;;5525745;25;20571;-55
2024/04/27 11:10:04;;;;;;;2.03;1.93;;;21.20;71.40;;;;;;5525956;25;20442;-55
2024/04/27 11:12:32;;;;;;;2.07;1.87;;;21.10;69.40;;;;;;5526653;25;20454;-55
2024/04/27 11:15:01;;;;;;;3.00;2.67;;;21.10;70.10;;;;;;5526488;25;20450;-55
2024/04/27 11:17:31;;;;;;;2.20;2.00;;;21.00;69.90;;;;;;5526149;25;20464;-55
2024/04/27 11:19:59;;;;;;;2.37;2.17;;;21.10;70.10;;;;;;5525972;25;20462;-55
2024/04/27 11:22:28;;;;;;;2.50;2.30;;;21.50;67.20;;;;;;5525539;25;20450;-55
2024/04/27 11:24:59;;;;;;;2.53;2.33;;;21.60;65.80;;;;;;5526046;25;20446;-55
2024/04/27 11:27:28;;;;;;;1.83;1.73;;;21.50;66.10;;;;;;5526004;25;21007;-55
2024/04/27 11:29:56;;;;;;;2.20;2.00;;;21.50;65.70;;;;;;5525652;25;20441;-55
2024/04/27 11:32:25;;;;;;;2.97;1.93;;;21.70;66.20;;;;;;5525590;25;20919;-56
2024/04/27 11:34:53;;;;;;;2.60;2.03;;;21.90;65.20;;;;;;5525664;25;20446;-55
2024/04/27 11:37:22;;;;;;;3.57;2.40;;;22.20;64.70;;;;;;5525699;25;20856;-57
2024/04/27 11:39:50;;;;;;;2.90;2.60;;;22.40;64.40;;;;;;5525919;25;20563;-56
2024/04/27 11:42:21;;;;;;;4.10;3.70;;;22.40;62.60;;;;;;5526174;25;20892;-55
2024/04/27 11:44:50;;;;;;;3.23;2.67;;;22.80;64.20;;;;;;5526291;25;21089;-55
2024/04/27 11:47:18;;;;;;;3.60;3.00;;;23.30;61.70;;;;;;5525435;25;20912;-56
2024/04/27 11:49:47;;;;;;;4.07;2.40;;;23.90;59.40;;;;;;5525222;25;20863;-56
2024/04/27 11:52:16;;;;;;;3.37;2.97;;;24.10;57.50;;;;;;5526512;25;20470;-56
2024/04/27 11:54:44;;;;;;;3.23;2.90;;;24.00;57.50;;;;;;5525440;25;20444;-56
2024/04/27 11:57:13;;;;;;;2.73;2.53;;;24.00;58.30;;;;;;5523990;25;20494;-56
2024/04/27 11:59:44;;;;;;;2.80;2.40;;;25.10;57.10;;;;;;5523787;25;20458;-55
2024/04/27 12:02:12;;;;;;;5.03;2.03;;;26.50;53.00;;;;;;5524980;25;20466;-54
2024/04/27 12:04:41;;;;;;;3.67;2.53;;;27.40;48.50;;;;;;5525315;25;20544;-55
2024/04/27 12:07:07;;;;;;;3.10;2.53;;;27.40;48.00;;;;;;5524817;25;20879;-55
2024/04/27 12:09:35;;;;;;;2.77;2.57;;;27.50;47.30;;;;;;5526079;25;20502;-55
2024/04/27 12:12:04;;;;;;;2.80;2.50;;;27.50;47.40;;;;;;5525185;25;20232;-54
2024/04/27 12:14:33;;;;;;;5.70;2.90;;;28.10;46.00;;;;;;5525297;25;20499;-55
2024/04/27 12:17:04;;;;;;;2.33;2.23;;;28.10;44.40;;;;;;5525568;25;20454;-55
2024/04/27 12:19:32;;;;;;;3.27;2.53;;;27.70;45.40;;;;;;5525591;25;20442;-54
2024/04/27 12:22:01;;;;;;;2.50;2.30;;;27.20;45.70;;;;;;5524500;25;20466;-54
2024/04/27 12:24:30;;;;;;;2.53;2.33;;;26.70;46.70;;;;;;5525228;25;20556;-54
2024/04/27 12:26:59;;;;;;;3.13;2.60;;;26.20;48.00;;;;;;5525958;25;20442;-54
2024/04/27 12:29:28;;;;;;;3.20;2.83;;;25.60;49.10;;;;;;5525716;26;20493;-55
2024/04/27 12:31:56;;;;;;;3.47;2.37;;;25.00;49.80;;;;;;5525308;25;20579;-56
2024/04/27 12:34:27;;;;;;;2.70;2.50;;;24.40;51.30;;;;;;5525228;25;20454;-54
2024/04/27 12:36:56;;;;;;;3.47;2.97;;;23.90;52.10;;;;;;5525161;25;20457;-54
2024/04/27 12:39:24;;;;;;;4.97;3.00;;;23.50;53.30;;;;;;5523828;25;20454;-54
2024/04/27 12:41:53;;;;;;;4.00;2.90;;;23.30;54.10;;;;;;5525161;25;20466;-55
2024/04/27 12:44:21;;;;;;;3.60;2.60;;;23.20;55.10;;;;;;5525148;25;20442;-54
2024/04/27 12:46:51;;;;;;;3.73;2.90;;;23.40;56.10;;;;;;5524733;25;20565;-55
2024/04/27 12:49:20;;;;;;;5.43;3.23;;;24.60;54.10;;;;;;5525162;25;20446;-55
2024/04/27 12:51:51;;;;;;;3.50;2.60;;;26.20;49.10;;;;;;5525070;26;20803;-55
2024/04/27 12:54:19;;;;;;;2.47;2.27;;;27.80;47.60;;;;;;5523714;25;20549;-55
2024/04/27 12:56:48;;;;;;;2.63;1.73;;;29.30;45.40;;;;;;5524241;25;21127;-55